sensor_id;sensor_type;location;lat;lon;timestamp;P1;durP1;ratioP1;P2;durP2;ratioP2
52964;SDS011;42923;53.220;6.528;2022-08-11T00:00:36;8.80;;;6.97;;
52964;SDS011;42923;53.220;6.528;2022-08-11T00:03:05;12.07;;;7.30;;
52964;SDS011;42923;53.220;6.528;2022-08-11T00:05:32;9.48;;;6.57;;
52964;SDS011;42923;53.220;6.528;2022-08-11T00:08:08;8.50;;;7.43;;
52964;SDS011;42923;53.220;6.528;2022-08-11T00:10:34;8.43;;;6.75;;
52964;SDS011;42923;53.220;6.528;2022-08-11T00:13:03;9.45;;;8.50;;
52964;SDS011;42923;53.220;6.528;2022-08-11T00:15:42;11.38;;;7.55;;
52964;SDS011;42923;53.220;6.528;2022-08-11T00:18:09;13.93;;;7.30;;
52964;SDS011;42923;53.220;6.528;2022-08-11T00:20:37;13.90;;;7.93;;
52964;SDS011;42923;53.220;6.528;2022-08-11T00:23:07;8.05;;;7.10;;
52964;SDS011;42923;53.220;6.528;2022-08-11T00:25:39;9.25;;;7.68;;
52964;SDS011;42923;53.220;6.528;2022-08-11T00:28:26;11.07;;;7.40;;
52964;SDS011;42923;53.220;6.528;2022-08-11T00:30:57;11.98;;;9.02;;
52964;SDS011;42923;53.220;6.528;2022-08-11T00:33:31;7.07;;;6.30;;
52964;SDS011;42923;53.220;6.528;2022-08-11T00:36:04;10.05;;;7.10;;
52964;SDS011;42923;53.220;6.528;2022-08-11T00:38:34;9.23;;;7.20;;
52964;SDS011;42923;53.220;6.528;2022-08-11T01:22:47;15.98;;;9.93;;
52964;SDS011;42923;53.220;6.528;2022-08-11T01:25:41;9.40;;;8.27;;
52964;SDS011;42923;53.220;6.528;2022-08-11T01:31:36;10.38;;;8.93;;
52964;SDS011;42923;53.220;6.528;2022-08-11T01:46:38;12.57;;;9.85;;
52964;SDS011;42923;53.220;6.528;2022-08-11T01:49:14;12.77;;;10.13;;
52964;SDS011;42923;53.220;6.528;2022-08-11T01:52:10;16.02;;;10.65;;
52964;SDS011;42923;53.220;6.528;2022-08-11T01:55:24;14.13;;;9.55;;
52964;SDS011;42923;53.220;6.528;2022-08-11T01:58:19;15.10;;;9.63;;
52964;SDS011;42923;53.220;6.528;2022-08-11T02:03:40;11.85;;;9.57;;
52964;SDS011;42923;53.220;6.528;2022-08-11T02:06:21;15.00;;;11.40;;
52964;SDS011;42923;53.220;6.528;2022-08-11T02:12:15;13.25;;;10.35;;
52964;SDS011;42923;53.220;6.528;2022-08-11T02:14:56;14.98;;;9.57;;
52964;SDS011;42923;53.220;6.528;2022-08-11T02:18:04;13.98;;;9.07;;
52964;SDS011;42923;53.220;6.528;2022-08-11T02:26:19;15.48;;;9.80;;
52964;SDS011;42923;53.220;6.528;2022-08-11T02:40:46;12.75;;;10.30;;
52964;SDS011;42923;53.220;6.528;2022-08-11T02:46:46;15.57;;;10.65;;
52964;SDS011;42923;53.220;6.528;2022-08-11T02:49:32;14.98;;;10.90;;
52964;SDS011;42923;53.220;6.528;2022-08-11T02:52:24;12.30;;;10.60;;
52964;SDS011;42923;53.220;6.528;2022-08-11T02:57:56;18.77;;;12.45;;
52964;SDS011;42923;53.220;6.528;2022-08-11T03:00:29;15.32;;;12.77;;
52964;SDS011;42923;53.220;6.528;2022-08-11T03:03:13;22.52;;;14.63;;
52964;SDS011;42923;53.220;6.528;2022-08-11T03:08:28;18.75;;;13.15;;
52964;SDS011;42923;53.220;6.528;2022-08-11T03:11:13;17.25;;;13.25;;
52964;SDS011;42923;53.220;6.528;2022-08-11T03:17:20;14.23;;;10.75;;
52964;SDS011;42923;53.220;6.528;2022-08-11T03:27:49;22.08;;;15.13;;
52964;SDS011;42923;53.220;6.528;2022-08-11T03:30:26;25.35;;;15.82;;
52964;SDS011;42923;53.220;6.528;2022-08-11T03:42:07;18.15;;;13.20;;
52964;SDS011;42923;53.220;6.528;2022-08-11T04:04:30;20.90;;;14.52;;
52964;SDS011;42923;53.220;6.528;2022-08-11T04:12:28;21.50;;;15.27;;
52964;SDS011;42923;53.220;6.528;2022-08-11T04:24:25;21.65;;;15.75;;
52964;SDS011;42923;53.220;6.528;2022-08-11T04:41:09;32.45;;;18.48;;
52964;SDS011;42923;53.220;6.528;2022-08-11T04:47:07;27.40;;;19.80;;
52964;SDS011;42923;53.220;6.528;2022-08-11T04:50:05;21.48;;;14.98;;
52964;SDS011;42923;53.220;6.528;2022-08-11T04:56:04;23.08;;;16.27;;
52964;SDS011;42923;53.220;6.528;2022-08-11T05:05:08;38.65;;;17.73;;
52964;SDS011;42923;53.220;6.528;2022-08-11T05:13:26;20.08;;;14.40;;
52964;SDS011;42923;53.220;6.528;2022-08-11T05:16:26;23.27;;;14.88;;
52964;SDS011;42923;53.220;6.528;2022-08-11T05:19:20;19.90;;;14.55;;
52964;SDS011;42923;53.220;6.528;2022-08-11T05:22:05;16.88;;;12.63;;
52964;SDS011;42923;53.220;6.528;2022-08-11T05:25:08;25.00;;;13.93;;
52964;SDS011;42923;53.220;6.528;2022-08-11T05:28:04;14.88;;;11.38;;
52964;SDS011;42923;53.220;6.528;2022-08-11T05:31:02;15.05;;;11.35;;
52964;SDS011;42923;53.220;6.528;2022-08-11T05:33:55;15.00;;;10.80;;
52964;SDS011;42923;53.220;6.528;2022-08-11T05:36:54;16.58;;;10.82;;
52964;SDS011;42923;53.220;6.528;2022-08-11T05:39:28;13.63;;;9.98;;
52964;SDS011;42923;53.220;6.528;2022-08-11T05:42:19;10.45;;;8.95;;
52964;SDS011;42923;53.220;6.528;2022-08-11T05:45:13;16.23;;;10.10;;
52964;SDS011;42923;53.220;6.528;2022-08-11T05:47:59;13.23;;;9.75;;
52964;SDS011;42923;53.220;6.528;2022-08-11T05:50:52;15.15;;;10.32;;
52964;SDS011;42923;53.220;6.528;2022-08-11T05:53:52;13.65;;;9.13;;
52964;SDS011;42923;53.220;6.528;2022-08-11T05:56:44;12.60;;;9.48;;
52964;SDS011;42923;53.220;6.528;2022-08-11T05:59:15;14.02;;;8.25;;
52964;SDS011;42923;53.220;6.528;2022-08-11T06:01:42;11.25;;;9.48;;
52964;SDS011;42923;53.220;6.528;2022-08-11T06:04:14;14.30;;;8.98;;
52964;SDS011;42923;53.220;6.528;2022-08-11T06:06:58;10.48;;;8.70;;
52964;SDS011;42923;53.220;6.528;2022-08-11T06:09:30;11.73;;;8.05;;
52964;SDS011;42923;53.220;6.528;2022-08-11T06:11:58;10.05;;;8.18;;
52964;SDS011;42923;53.220;6.528;2022-08-11T06:14:29;13.52;;;7.25;;
52964;SDS011;42923;53.220;6.528;2022-08-11T06:16:58;9.38;;;7.55;;
52964;SDS011;42923;53.220;6.528;2022-08-11T06:19:37;13.38;;;7.93;;
52964;SDS011;42923;53.220;6.528;2022-08-11T06:22:06;11.65;;;7.70;;
52964;SDS011;42923;53.220;6.528;2022-08-11T06:24:37;9.50;;;6.97;;
52964;SDS011;42923;53.220;6.528;2022-08-11T06:27:05;9.35;;;6.82;;
52964;SDS011;42923;53.220;6.528;2022-08-11T06:29:35;10.85;;;7.43;;
52964;SDS011;42923;53.220;6.528;2022-08-11T06:32:05;15.10;;;6.63;;
52964;SDS011;42923;53.220;6.528;2022-08-11T06:34:39;9.07;;;6.45;;
52964;SDS011;42923;53.220;6.528;2022-08-11T06:40:25;8.35;;;5.60;;
52964;SDS011;42923;53.220;6.528;2022-08-11T06:43:23;9.15;;;6.03;;
52964;SDS011;42923;53.220;6.528;2022-08-11T06:48:27;5.65;;;4.85;;
52964;SDS011;42923;53.220;6.528;2022-08-11T06:50:56;6.80;;;5.47;;
52964;SDS011;42923;53.220;6.528;2022-08-11T06:56:08;6.95;;;4.78;;
52964;SDS011;42923;53.220;6.528;2022-08-11T07:13:46;9.50;;;4.55;;
52964;SDS011;42923;53.220;6.528;2022-08-11T07:16:35;7.57;;;3.60;;
52964;SDS011;42923;53.220;6.528;2022-08-11T07:19:06;5.57;;;3.83;;
52964;SDS011;42923;53.220;6.528;2022-08-11T07:21:51;7.95;;;4.90;;
52964;SDS011;42923;53.220;6.528;2022-08-11T07:24:39;3.67;;;3.22;;
52964;SDS011;42923;53.220;6.528;2022-08-11T07:27:27;7.13;;;3.67;;
52964;SDS011;42923;53.220;6.528;2022-08-11T07:30:23;9.02;;;4.55;;
52964;SDS011;42923;53.220;6.528;2022-08-11T07:32:51;9.85;;;3.65;;
52964;SDS011;42923;53.220;6.528;2022-08-11T07:35:21;6.47;;;3.17;;
52964;SDS011;42923;53.220;6.528;2022-08-11T07:37:58;6.75;;;3.42;;
52964;SDS011;42923;53.220;6.528;2022-08-11T07:40:28;9.35;;;3.42;;
52964;SDS011;42923;53.220;6.528;2022-08-11T07:42:54;5.25;;;3.08;;
52964;SDS011;42923;53.220;6.528;2022-08-11T07:45:23;10.38;;;2.80;;
52964;SDS011;42923;53.220;6.528;2022-08-11T07:50:53;4.72;;;2.83;;
52964;SDS011;42923;53.220;6.528;2022-08-11T07:53:39;4.07;;;2.60;;
52964;SDS011;42923;53.220;6.528;2022-08-11T07:56:05;6.80;;;2.85;;
52964;SDS011;42923;53.220;6.528;2022-08-11T07:58:33;4.57;;;2.80;;
52964;SDS011;42923;53.220;6.528;2022-08-11T08:01:20;6.55;;;3.10;;
52964;SDS011;42923;53.220;6.528;2022-08-11T08:04:07;6.47;;;2.67;;
52964;SDS011;42923;53.220;6.528;2022-08-11T08:06:53;3.67;;;2.65;;
52964;SDS011;42923;53.220;6.528;2022-08-11T08:09:38;4.55;;;2.53;;
52964;SDS011;42923;53.220;6.528;2022-08-11T08:12:24;5.07;;;2.85;;
52964;SDS011;42923;53.220;6.528;2022-08-11T08:15:10;5.10;;;2.45;;
52964;SDS011;42923;53.220;6.528;2022-08-11T08:17:57;3.78;;;2.28;;
52964;SDS011;42923;53.220;6.528;2022-08-11T08:20:32;3.15;;;2.25;;
52964;SDS011;42923;53.220;6.528;2022-08-11T08:23:03;5.70;;;2.20;;
52964;SDS011;42923;53.220;6.528;2022-08-11T08:25:31;4.93;;;2.45;;
52964;SDS011;42923;53.220;6.528;2022-08-11T08:28:00;4.78;;;2.42;;
52964;SDS011;42923;53.220;6.528;2022-08-11T08:30:29;2.50;;;2.30;;
52964;SDS011;42923;53.220;6.528;2022-08-11T08:35:52;3.03;;;1.98;;
52964;SDS011;42923;53.220;6.528;2022-08-11T08:38:43;6.70;;;2.10;;
52964;SDS011;42923;53.220;6.528;2022-08-11T08:41:12;6.13;;;2.10;;
52964;SDS011;42923;53.220;6.528;2022-08-11T08:43:42;4.95;;;1.90;;
52964;SDS011;42923;53.220;6.528;2022-08-11T08:46:13;3.72;;;1.90;;
52964;SDS011;42923;53.220;6.528;2022-08-11T08:48:40;2.97;;;2.03;;
52964;SDS011;42923;53.220;6.528;2022-08-11T08:51:11;2.92;;;1.65;;
52964;SDS011;42923;53.220;6.528;2022-08-11T08:53:58;5.72;;;1.85;;
52964;SDS011;42923;53.220;6.528;2022-08-11T08:56:28;3.85;;;1.77;;
52964;SDS011;42923;53.220;6.528;2022-08-11T08:58:58;3.03;;;1.70;;
52964;SDS011;42923;53.220;6.528;2022-08-11T09:01:30;6.53;;;1.80;;
52964;SDS011;42923;53.220;6.528;2022-08-11T09:04:01;5.97;;;1.50;;
52964;SDS011;42923;53.220;6.528;2022-08-11T09:06:31;4.00;;;1.75;;
52964;SDS011;42923;53.220;6.528;2022-08-11T09:08:58;6.20;;;2.35;;
52964;SDS011;42923;53.220;6.528;2022-08-11T09:11:24;9.63;;;1.77;;
52964;SDS011;42923;53.220;6.528;2022-08-11T09:14:09;7.13;;;2.00;;
52964;SDS011;42923;53.220;6.528;2022-08-11T09:16:35;5.80;;;1.70;;
52964;SDS011;42923;53.220;6.528;2022-08-11T09:19:03;3.50;;;1.63;;
52964;SDS011;42923;53.220;6.528;2022-08-11T09:21:29;3.15;;;1.67;;
52964;SDS011;42923;53.220;6.528;2022-08-11T09:23:56;3.88;;;1.80;;
52964;SDS011;42923;53.220;6.528;2022-08-11T09:26:42;2.63;;;1.60;;
52964;SDS011;42923;53.220;6.528;2022-08-11T09:29:23;5.50;;;2.63;;
52964;SDS011;42923;53.220;6.528;2022-08-11T09:31:51;4.03;;;1.75;;
52964;SDS011;42923;53.220;6.528;2022-08-11T09:34:18;7.07;;;1.92;;
52964;SDS011;42923;53.220;6.528;2022-08-11T09:36:44;5.22;;;2.22;;
52964;SDS011;42923;53.220;6.528;2022-08-11T09:39:29;9.30;;;2.05;;
52964;SDS011;42923;53.220;6.528;2022-08-11T09:42:14;7.78;;;2.00;;
52964;SDS011;42923;53.220;6.528;2022-08-11T09:44:41;2.20;;;1.90;;
52964;SDS011;42923;53.220;6.528;2022-08-11T09:49:47;4.88;;;2.03;;
52964;SDS011;42923;53.220;6.528;2022-08-11T09:52:16;5.40;;;1.63;;
52964;SDS011;42923;53.220;6.528;2022-08-11T09:54:43;3.28;;;1.90;;
52964;SDS011;42923;53.220;6.528;2022-08-11T09:57:12;6.95;;;1.77;;
52964;SDS011;42923;53.220;6.528;2022-08-11T09:59:57;10.95;;;2.15;;
52964;SDS011;42923;53.220;6.528;2022-08-11T10:02:24;4.90;;;1.75;;
52964;SDS011;42923;53.220;6.528;2022-08-11T10:04:56;4.88;;;1.50;;
52964;SDS011;42923;53.220;6.528;2022-08-11T10:07:46;3.95;;;1.83;;
52964;SDS011;42923;53.220;6.528;2022-08-11T10:10:16;1.55;;;1.40;;
52964;SDS011;42923;53.220;6.528;2022-08-11T10:12:48;6.25;;;1.90;;
52964;SDS011;42923;53.220;6.528;2022-08-11T10:15:18;5.63;;;1.40;;
52964;SDS011;42923;53.220;6.528;2022-08-11T10:18:07;6.32;;;2.10;;
52964;SDS011;42923;53.220;6.528;2022-08-11T10:21:00;2.25;;;1.55;;
52964;SDS011;42923;53.220;6.528;2022-08-11T10:23:29;3.83;;;1.80;;
52964;SDS011;42923;53.220;6.528;2022-08-11T10:26:18;3.78;;;2.00;;
52964;SDS011;42923;53.220;6.528;2022-08-11T10:29:04;4.40;;;1.58;;
52964;SDS011;42923;53.220;6.528;2022-08-11T10:31:52;6.47;;;2.03;;
52964;SDS011;42923;53.220;6.528;2022-08-11T10:34:39;4.15;;;1.60;;
52964;SDS011;42923;53.220;6.528;2022-08-11T10:37:06;3.20;;;2.03;;
52964;SDS011;42923;53.220;6.528;2022-08-11T10:39:32;4.00;;;1.73;;
52964;SDS011;42923;53.220;6.528;2022-08-11T10:41:59;2.97;;;1.50;;
52964;SDS011;42923;53.220;6.528;2022-08-11T10:44:46;3.08;;;1.98;;
52964;SDS011;42923;53.220;6.528;2022-08-11T10:47:16;3.55;;;1.70;;
52964;SDS011;42923;53.220;6.528;2022-08-11T10:50:06;2.78;;;1.48;;
52964;SDS011;42923;53.220;6.528;2022-08-11T10:53:12;4.57;;;1.67;;
52964;SDS011;42923;53.220;6.528;2022-08-11T10:55:58;2.95;;;1.70;;
52964;SDS011;42923;53.220;6.528;2022-08-11T10:58:43;3.33;;;1.60;;
52964;SDS011;42923;53.220;6.528;2022-08-11T11:01:15;4.00;;;1.52;;
52964;SDS011;42923;53.220;6.528;2022-08-11T11:03:51;5.13;;;1.80;;
52964;SDS011;42923;53.220;6.528;2022-08-11T11:06:23;5.90;;;2.08;;
52964;SDS011;42923;53.220;6.528;2022-08-11T11:11:55;5.78;;;1.90;;
52964;SDS011;42923;53.220;6.528;2022-08-11T11:14:46;3.22;;;2.10;;
52964;SDS011;42923;53.220;6.528;2022-08-11T11:17:39;4.07;;;1.85;;
52964;SDS011;42923;53.220;6.528;2022-08-11T11:20:55;5.00;;;2.05;;
52964;SDS011;42923;53.220;6.528;2022-08-11T11:36:59;4.10;;;2.15;;
52964;SDS011;42923;53.220;6.528;2022-08-11T11:39:26;4.20;;;2.38;;
52964;SDS011;42923;53.220;6.528;2022-08-11T11:41:56;5.28;;;2.30;;
52964;SDS011;42923;53.220;6.528;2022-08-11T11:44:24;2.85;;;2.28;;
52964;SDS011;42923;53.220;6.528;2022-08-11T11:46:53;2.55;;;2.10;;
52964;SDS011;42923;53.220;6.528;2022-08-11T11:49:21;3.72;;;2.42;;
52964;SDS011;42923;53.220;6.528;2022-08-11T11:51:49;4.53;;;2.53;;
52964;SDS011;42923;53.220;6.528;2022-08-11T11:54:29;3.22;;;1.92;;
52964;SDS011;42923;53.220;6.528;2022-08-11T11:56:58;4.65;;;2.30;;
52964;SDS011;42923;53.220;6.528;2022-08-11T11:59:47;5.13;;;2.35;;
52964;SDS011;42923;53.220;6.528;2022-08-11T12:02:34;6.75;;;1.90;;
52964;SDS011;42923;53.220;6.528;2022-08-11T12:05:01;4.95;;;1.83;;
52964;SDS011;42923;53.220;6.528;2022-08-11T12:07:28;2.72;;;2.00;;
52964;SDS011;42923;53.220;6.528;2022-08-11T12:10:13;4.32;;;2.10;;
52964;SDS011;42923;53.220;6.528;2022-08-11T12:12:41;4.80;;;1.90;;
52964;SDS011;42923;53.220;6.528;2022-08-11T12:15:27;2.88;;;2.00;;
52964;SDS011;42923;53.220;6.528;2022-08-11T12:17:53;4.15;;;2.03;;
52964;SDS011;42923;53.220;6.528;2022-08-11T12:20:20;2.90;;;2.30;;
52964;SDS011;42923;53.220;6.528;2022-08-11T12:22:47;2.25;;;1.98;;
52964;SDS011;42923;53.220;6.528;2022-08-11T12:25:32;3.78;;;2.58;;
52964;SDS011;42923;53.220;6.528;2022-08-11T12:28:18;13.45;;;2.05;;
52964;SDS011;42923;53.220;6.528;2022-08-11T12:30:47;6.20;;;1.80;;
52964;SDS011;42923;53.220;6.528;2022-08-11T12:33:14;2.70;;;1.70;;
52964;SDS011;42923;53.220;6.528;2022-08-11T12:35:41;4.82;;;1.63;;
52964;SDS011;42923;53.220;6.528;2022-08-11T12:38:07;1.60;;;1.50;;
52964;SDS011;42923;53.220;6.528;2022-08-11T12:40:34;2.55;;;1.73;;
52964;SDS011;42923;53.220;6.528;2022-08-11T12:43:21;3.15;;;1.77;;
52964;SDS011;42923;53.220;6.528;2022-08-11T12:46:15;4.10;;;2.05;;
52964;SDS011;42923;53.220;6.528;2022-08-11T12:48:56;3.22;;;1.98;;
52964;SDS011;42923;53.220;6.528;2022-08-11T12:51:44;3.22;;;2.10;;
52964;SDS011;42923;53.220;6.528;2022-08-11T12:57:16;2.63;;;2.03;;
52964;SDS011;42923;53.220;6.528;2022-08-11T13:00:07;3.22;;;2.10;;
52964;SDS011;42923;53.220;6.528;2022-08-11T13:02:53;2.08;;;1.90;;
52964;SDS011;42923;53.220;6.528;2022-08-11T13:05:39;4.43;;;2.42;;
52964;SDS011;42923;53.220;6.528;2022-08-11T13:08:06;2.75;;;1.90;;
52964;SDS011;42923;53.220;6.528;2022-08-11T13:10:32;5.65;;;1.70;;
52964;SDS011;42923;53.220;6.528;2022-08-11T13:13:18;3.92;;;1.80;;
52964;SDS011;42923;53.220;6.528;2022-08-11T13:15:47;22.88;;;2.67;;
52964;SDS011;42923;53.220;6.528;2022-08-11T13:18:17;3.83;;;1.90;;
52964;SDS011;42923;53.220;6.528;2022-08-11T13:20:47;2.47;;;1.73;;
52964;SDS011;42923;53.220;6.528;2022-08-11T13:23:18;4.50;;;1.67;;
52964;SDS011;42923;53.220;6.528;2022-08-11T13:25:44;1.83;;;1.73;;
52964;SDS011;42923;53.220;6.528;2022-08-11T13:28:10;3.33;;;1.92;;
52964;SDS011;42923;53.220;6.528;2022-08-11T13:30:37;2.80;;;1.50;;
52964;SDS011;42923;53.220;6.528;2022-08-11T13:33:22;9.32;;;2.03;;
52964;SDS011;42923;53.220;6.528;2022-08-11T13:35:50;1.60;;;1.50;;
52964;SDS011;42923;53.220;6.528;2022-08-11T13:38:18;4.13;;;1.98;;
52964;SDS011;42923;53.220;6.528;2022-08-11T13:40:47;5.13;;;1.88;;
52964;SDS011;42923;53.220;6.528;2022-08-11T13:43:14;1.70;;;1.60;;
52964;SDS011;42923;53.220;6.528;2022-08-11T13:45:41;2.42;;;1.50;;
52964;SDS011;42923;53.220;6.528;2022-08-11T13:48:09;2.50;;;1.88;;
52964;SDS011;42923;53.220;6.528;2022-08-11T13:50:36;3.65;;;1.80;;
52964;SDS011;42923;53.220;6.528;2022-08-11T13:53:21;3.90;;;1.60;;
52964;SDS011;42923;53.220;6.528;2022-08-11T13:55:49;2.60;;;1.95;;
52964;SDS011;42923;53.220;6.528;2022-08-11T13:58:16;2.35;;;1.75;;
52964;SDS011;42923;53.220;6.528;2022-08-11T14:00:44;3.33;;;1.70;;
52964;SDS011;42923;53.220;6.528;2022-08-11T14:03:13;3.63;;;1.23;;
52964;SDS011;42923;53.220;6.528;2022-08-11T14:05:41;4.40;;;1.58;;
52964;SDS011;42923;53.220;6.528;2022-08-11T14:08:13;2.15;;;1.50;;
52964;SDS011;42923;53.220;6.528;2022-08-11T14:10:42;3.38;;;1.80;;
52964;SDS011;42923;53.220;6.528;2022-08-11T14:13:12;7.18;;;1.95;;
52964;SDS011;42923;53.220;6.528;2022-08-11T14:16:00;1.77;;;1.67;;
52964;SDS011;42923;53.220;6.528;2022-08-11T14:18:30;3.40;;;2.00;;
52964;SDS011;42923;53.220;6.528;2022-08-11T14:20:58;6.70;;;2.10;;
52964;SDS011;42923;53.220;6.528;2022-08-11T14:24:04;1.75;;;1.60;;
52964;SDS011;42923;53.220;6.528;2022-08-11T14:26:30;1.90;;;1.70;;
52964;SDS011;42923;53.220;6.528;2022-08-11T14:31:34;5.13;;;2.03;;
52964;SDS011;42923;53.220;6.528;2022-08-11T14:34:04;4.22;;;2.00;;
52964;SDS011;42923;53.220;6.528;2022-08-11T14:36:38;3.90;;;1.75;;
52964;SDS011;42923;53.220;6.528;2022-08-11T14:39:10;2.78;;;2.00;;
52964;SDS011;42923;53.220;6.528;2022-08-11T14:41:45;3.13;;;1.80;;
52964;SDS011;42923;53.220;6.528;2022-08-11T14:44:33;3.80;;;1.73;;
52964;SDS011;42923;53.220;6.528;2022-08-11T14:47:18;4.20;;;1.70;;
52964;SDS011;42923;53.220;6.528;2022-08-11T14:49:45;7.28;;;1.88;;
52964;SDS011;42923;53.220;6.528;2022-08-11T14:52:13;5.70;;;1.80;;
52964;SDS011;42923;53.220;6.528;2022-08-11T14:54:45;6.32;;;1.95;;
52964;SDS011;42923;53.220;6.528;2022-08-11T14:57:35;4.25;;;1.75;;
52964;SDS011;42923;53.220;6.528;2022-08-11T15:00:03;3.22;;;1.90;;
52964;SDS011;42923;53.220;6.528;2022-08-11T15:02:32;3.45;;;2.00;;
52964;SDS011;42923;53.220;6.528;2022-08-11T15:05:19;6.28;;;1.80;;
52964;SDS011;42923;53.220;6.528;2022-08-11T15:07:46;5.43;;;1.70;;
52964;SDS011;42923;53.220;6.528;2022-08-11T15:10:12;3.92;;;1.65;;
52964;SDS011;42923;53.220;6.528;2022-08-11T15:12:42;2.13;;;1.52;;
52964;SDS011;42923;53.220;6.528;2022-08-11T15:15:09;2.55;;;1.60;;
52964;SDS011;42923;53.220;6.528;2022-08-11T15:17:56;2.85;;;2.00;;
52964;SDS011;42923;53.220;6.528;2022-08-11T15:20:24;2.88;;;1.83;;
52964;SDS011;42923;53.220;6.528;2022-08-11T15:23:09;5.55;;;1.50;;
52964;SDS011;42923;53.220;6.528;2022-08-11T15:26:07;4.60;;;2.10;;
52964;SDS011;42923;53.220;6.528;2022-08-11T15:28:38;5.95;;;1.70;;
52964;SDS011;42923;53.220;6.528;2022-08-11T15:31:27;3.30;;;1.70;;
52964;SDS011;42923;53.220;6.528;2022-08-11T15:34:07;3.42;;;1.90;;
52964;SDS011;42923;53.220;6.528;2022-08-11T15:36:54;5.43;;;1.67;;
52964;SDS011;42923;53.220;6.528;2022-08-11T15:39:49;3.83;;;1.73;;
52964;SDS011;42923;53.220;6.528;2022-08-11T15:43:27;6.97;;;1.73;;
52964;SDS011;42923;53.220;6.528;2022-08-11T15:46:00;3.28;;;1.60;;
52964;SDS011;42923;53.220;6.528;2022-08-11T15:48:38;2.63;;;1.73;;
52964;SDS011;42923;53.220;6.528;2022-08-11T15:51:17;3.00;;;2.50;;
52964;SDS011;42923;53.220;6.528;2022-08-11T15:53:54;7.93;;;2.10;;
52964;SDS011;42923;53.220;6.528;2022-08-11T15:56:23;2.60;;;1.77;;
52964;SDS011;42923;53.220;6.528;2022-08-11T15:58:52;4.93;;;2.50;;
52964;SDS011;42923;53.220;6.528;2022-08-11T16:01:39;8.20;;;2.13;;
52964;SDS011;42923;53.220;6.528;2022-08-11T16:04:25;5.13;;;2.42;;
52964;SDS011;42923;53.220;6.528;2022-08-11T16:09:49;3.80;;;1.70;;
52964;SDS011;42923;53.220;6.528;2022-08-11T16:12:19;3.15;;;1.80;;
52964;SDS011;42923;53.220;6.528;2022-08-11T16:14:50;7.32;;;1.95;;
52964;SDS011;42923;53.220;6.528;2022-08-11T16:17:42;1.70;;;1.60;;
52964;SDS011;42923;53.220;6.528;2022-08-11T16:20:10;7.13;;;2.33;;
52964;SDS011;42923;53.220;6.528;2022-08-11T16:22:38;2.40;;;1.52;;
52964;SDS011;42923;53.220;6.528;2022-08-11T16:25:11;3.40;;;1.80;;
52964;SDS011;42923;53.220;6.528;2022-08-11T16:27:41;5.68;;;1.80;;
52964;SDS011;42923;53.220;6.528;2022-08-11T16:30:10;3.97;;;1.60;;
52964;SDS011;42923;53.220;6.528;2022-08-11T16:32:39;2.65;;;1.73;;
52964;SDS011;42923;53.220;6.528;2022-08-11T16:35:14;9.88;;;2.90;;
52964;SDS011;42923;53.220;6.528;2022-08-11T16:38:01;5.90;;;2.10;;
52964;SDS011;42923;53.220;6.528;2022-08-11T16:40:48;2.28;;;1.30;;
52964;SDS011;42923;53.220;6.528;2022-08-11T16:43:17;3.65;;;1.90;;
52964;SDS011;42923;53.220;6.528;2022-08-11T16:46:04;4.65;;;1.60;;
52964;SDS011;42923;53.220;6.528;2022-08-11T16:48:50;4.78;;;1.83;;
52964;SDS011;42923;53.220;6.528;2022-08-11T16:51:17;3.50;;;1.85;;
52964;SDS011;42923;53.220;6.528;2022-08-11T16:53:45;4.50;;;1.80;;
52964;SDS011;42923;53.220;6.528;2022-08-11T16:56:14;2.60;;;1.65;;
52964;SDS011;42923;53.220;6.528;2022-08-11T16:58:44;5.68;;;1.92;;
52964;SDS011;42923;53.220;6.528;2022-08-11T17:01:32;7.55;;;2.00;;
52964;SDS011;42923;53.220;6.528;2022-08-11T17:04:02;3.40;;;2.15;;
52964;SDS011;42923;53.220;6.528;2022-08-11T17:06:51;6.15;;;2.13;;
52964;SDS011;42923;53.220;6.528;2022-08-11T17:09:36;2.88;;;1.67;;
52964;SDS011;42923;53.220;6.528;2022-08-11T17:12:23;3.63;;;2.15;;
52964;SDS011;42923;53.220;6.528;2022-08-11T17:15:16;6.50;;;1.95;;
52964;SDS011;42923;53.220;6.528;2022-08-11T17:18:02;5.20;;;1.80;;
52964;SDS011;42923;53.220;6.528;2022-08-11T17:20:30;4.38;;;2.00;;
52964;SDS011;42923;53.220;6.528;2022-08-11T17:22:58;5.65;;;2.20;;
52964;SDS011;42923;53.220;6.528;2022-08-11T17:25:45;9.52;;;1.98;;
52964;SDS011;42923;53.220;6.528;2022-08-11T17:28:12;8.25;;;2.00;;
52964;SDS011;42923;53.220;6.528;2022-08-11T17:30:41;7.28;;;2.15;;
52964;SDS011;42923;53.220;6.528;2022-08-11T17:33:25;2.63;;;1.80;;
52964;SDS011;42923;53.220;6.528;2022-08-11T17:36:12;3.47;;;2.20;;
52964;SDS011;42923;53.220;6.528;2022-08-11T17:38:41;3.05;;;2.22;;
52964;SDS011;42923;53.220;6.528;2022-08-11T17:41:08;12.57;;;3.47;;
52964;SDS011;42923;53.220;6.528;2022-08-11T17:43:54;4.57;;;2.60;;
52964;SDS011;42923;53.220;6.528;2022-08-11T17:46:40;2.22;;;1.92;;
52964;SDS011;42923;53.220;6.528;2022-08-11T17:49:25;5.17;;;2.00;;
52964;SDS011;42923;53.220;6.528;2022-08-11T17:51:52;9.75;;;2.35;;
52964;SDS011;42923;53.220;6.528;2022-08-11T17:54:38;6.63;;;2.00;;
52964;SDS011;42923;53.220;6.528;2022-08-11T17:57:24;7.95;;;2.72;;
52964;SDS011;42923;53.220;6.528;2022-08-11T18:00:11;3.58;;;1.92;;
52964;SDS011;42923;53.220;6.528;2022-08-11T18:02:44;6.25;;;2.03;;
52964;SDS011;42923;53.220;6.528;2022-08-11T18:05:31;3.40;;;2.25;;
52964;SDS011;42923;53.220;6.528;2022-08-11T18:08:02;5.35;;;2.05;;
52964;SDS011;42923;53.220;6.528;2022-08-11T18:10:49;5.13;;;1.98;;
52964;SDS011;42923;53.220;6.528;2022-08-11T18:13:36;15.18;;;2.47;;
52964;SDS011;42923;53.220;6.528;2022-08-11T18:16:21;5.45;;;1.80;;
52964;SDS011;42923;53.220;6.528;2022-08-11T18:19:06;5.80;;;2.20;;
52964;SDS011;42923;53.220;6.528;2022-08-11T18:21:52;7.40;;;1.90;;
52964;SDS011;42923;53.220;6.528;2022-08-11T18:24:40;9.77;;;2.42;;
52964;SDS011;42923;53.220;6.528;2022-08-11T18:27:30;3.65;;;1.73;;
52964;SDS011;42923;53.220;6.528;2022-08-11T18:30:17;5.28;;;1.98;;
52964;SDS011;42923;53.220;6.528;2022-08-11T18:33:02;5.18;;;2.30;;
52964;SDS011;42923;53.220;6.528;2022-08-11T18:35:52;3.28;;;1.98;;
52964;SDS011;42923;53.220;6.528;2022-08-11T18:38:41;4.25;;;1.70;;
52964;SDS011;42923;53.220;6.528;2022-08-11T18:41:29;5.13;;;2.53;;
52964;SDS011;42923;53.220;6.528;2022-08-11T18:44:18;3.30;;;1.98;;
52964;SDS011;42923;53.220;6.528;2022-08-11T18:47:07;5.93;;;1.92;;
52964;SDS011;42923;53.220;6.528;2022-08-11T18:49:53;4.05;;;2.33;;
52964;SDS011;42923;53.220;6.528;2022-08-11T18:55:27;3.85;;;1.95;;
52964;SDS011;42923;53.220;6.528;2022-08-11T18:58:14;19.98;;;2.33;;
52964;SDS011;42923;53.220;6.528;2022-08-11T19:01:03;2.20;;;1.73;;
52964;SDS011;42923;53.220;6.528;2022-08-11T19:03:52;6.28;;;1.75;;
52964;SDS011;42923;53.220;6.528;2022-08-11T19:06:38;8.70;;;2.15;;
52964;SDS011;42923;53.220;6.528;2022-08-11T19:09:25;6.35;;;2.75;;
52964;SDS011;42923;53.220;6.528;2022-08-11T19:12:11;5.60;;;2.28;;
52964;SDS011;42923;53.220;6.528;2022-08-11T19:14:57;5.78;;;1.98;;
52964;SDS011;42923;53.220;6.528;2022-08-11T19:17:43;3.67;;;2.00;;
52964;SDS011;42923;53.220;6.528;2022-08-11T19:20:28;5.82;;;2.10;;
52964;SDS011;42923;53.220;6.528;2022-08-11T19:23:16;7.30;;;2.72;;
52964;SDS011;42923;53.220;6.528;2022-08-11T19:26:07;4.40;;;1.98;;
52964;SDS011;42923;53.220;6.528;2022-08-11T19:28:52;8.37;;;1.97;;
52964;SDS011;42923;53.220;6.528;2022-08-11T19:31:38;3.53;;;1.80;;
52964;SDS011;42923;53.220;6.528;2022-08-11T19:34:23;6.13;;;2.13;;
52964;SDS011;42923;53.220;6.528;2022-08-11T19:37:09;6.03;;;2.78;;
52964;SDS011;42923;53.220;6.528;2022-08-11T19:39:59;7.18;;;2.10;;
52964;SDS011;42923;53.220;6.528;2022-08-11T19:42:47;5.28;;;2.15;;
52964;SDS011;42923;53.220;6.528;2022-08-11T19:45:33;3.25;;;2.03;;